sensor_id;sensor_type;location;lat;lon;timestamp;P1;durP1;ratioP1;P2;durP2;ratioP2
36671;SDS011;22663;47.412;9.742;2023-01-15T00:01:00;1.52;;;0.50;;
36671;SDS011;22663;47.412;9.742;2023-01-15T00:03:27;2.10;;;0.30;;
36671;SDS011;22663;47.412;9.742;2023-01-15T00:05:53;1.48;;;0.70;;
36671;SDS011;22663;47.412;9.742;2023-01-15T00:08:19;1.20;;;0.50;;
36671;SDS011;22663;47.412;9.742;2023-01-15T00:10:45;0.38;;;0.20;;
36671;SDS011;22663;47.412;9.742;2023-01-15T00:13:11;0.63;;;0.30;;
36671;SDS011;22663;47.412;9.742;2023-01-15T00:15:37;1.25;;;0.20;;
36671;SDS011;22663;47.412;9.742;2023-01-15T00:18:03;0.85;;;0.30;;
36671;SDS011;22663;47.412;9.742;2023-01-15T00:20:29;1.52;;;0.20;;
36671;SDS011;22663;47.412;9.742;2023-01-15T00:22:55;2.72;;;0.45;;
36671;SDS011;22663;47.412;9.742;2023-01-15T00:25:21;0.80;;;0.40;;
36671;SDS011;22663;47.412;9.742;2023-01-15T00:28:06;0.90;;;0.50;;
36671;SDS011;22663;47.412;9.742;2023-01-15T00:30:32;0.45;;;0.30;;
36671;SDS011;22663;47.412;9.742;2023-01-15T00:32:58;2.15;;;1.00;;
36671;SDS011;22663;47.412;9.742;2023-01-15T00:35:24;1.50;;;0.60;;
36671;SDS011;22663;47.412;9.742;2023-01-15T00:37:50;1.88;;;1.08;;
36671;SDS011;22663;47.412;9.742;2023-01-15T00:40:17;3.35;;;1.13;;
36671;SDS011;22663;47.412;9.742;2023-01-15T00:42:43;4.32;;;1.27;;
36671;SDS011;22663;47.412;9.742;2023-01-15T00:45:10;3.22;;;1.63;;
36671;SDS011;22663;47.412;9.742;2023-01-15T00:47:37;2.97;;;1.75;;
36671;SDS011;22663;47.412;9.742;2023-01-15T00:50:05;2.70;;;1.63;;
36671;SDS011;22663;47.412;9.742;2023-01-15T00:52:31;1.42;;;1.10;;
36671;SDS011;22663;47.412;9.742;2023-01-15T00:54:57;3.40;;;0.73;;
36671;SDS011;22663;47.412;9.742;2023-01-15T00:57:23;1.08;;;0.73;;
36671;SDS011;22663;47.412;9.742;2023-01-15T00:59:49;2.47;;;0.80;;
36671;SDS011;22663;47.412;9.742;2023-01-15T01:02:15;3.15;;;0.85;;
36671;SDS011;22663;47.412;9.742;2023-01-15T01:04:41;1.25;;;0.82;;
36671;SDS011;22663;47.412;9.742;2023-01-15T01:07:07;1.98;;;0.98;;
36671;SDS011;22663;47.412;9.742;2023-01-15T01:09:33;2.63;;;0.50;;
36671;SDS011;22663;47.412;9.742;2023-01-15T01:11:59;1.45;;;0.80;;
36671;SDS011;22663;47.412;9.742;2023-01-15T01:14:26;2.03;;;0.85;;
36671;SDS011;22663;47.412;9.742;2023-01-15T01:16:52;1.73;;;0.93;;
36671;SDS011;22663;47.412;9.742;2023-01-15T01:19:19;1.58;;;0.88;;
36671;SDS011;22663;47.412;9.742;2023-01-15T01:21:45;2.63;;;0.80;;
36671;SDS011;22663;47.412;9.742;2023-01-15T01:24:12;1.48;;;0.60;;
36671;SDS011;22663;47.412;9.742;2023-01-15T01:26:39;1.30;;;0.70;;
36671;SDS011;22663;47.412;9.742;2023-01-15T01:29:05;1.70;;;0.70;;
36671;SDS011;22663;47.412;9.742;2023-01-15T01:31:31;0.70;;;0.45;;
36671;SDS011;22663;47.412;9.742;2023-01-15T01:33:58;0.70;;;0.45;;
36671;SDS011;22663;47.412;9.742;2023-01-15T01:36:25;0.98;;;0.43;;
36671;SDS011;22663;47.412;9.742;2023-01-15T01:38:51;1.30;;;0.50;;
36671;SDS011;22663;47.412;9.742;2023-01-15T01:41:18;0.43;;;0.30;;
36671;SDS011;22663;47.412;9.742;2023-01-15T01:43:54;0.73;;;0.40;;
36671;SDS011;22663;47.412;9.742;2023-01-15T01:46:21;0.60;;;0.40;;
36671;SDS011;22663;47.412;9.742;2023-01-15T01:48:47;1.15;;;0.40;;
36671;SDS011;22663;47.412;9.742;2023-01-15T01:51:15;1.85;;;0.52;;
36671;SDS011;22663;47.412;9.742;2023-01-15T01:53:42;0.80;;;0.50;;
36671;SDS011;22663;47.412;9.742;2023-01-15T01:56:08;0.38;;;0.10;;
36671;SDS011;22663;47.412;9.742;2023-01-15T01:58:35;1.35;;;0.57;;
36671;SDS011;22663;47.412;9.742;2023-01-15T02:01:01;0.43;;;0.25;;
36671;SDS011;22663;47.412;9.742;2023-01-15T02:03:31;0.73;;;0.28;;
36671;SDS011;22663;47.412;9.742;2023-01-15T02:05:59;1.58;;;0.30;;
36671;SDS011;22663;47.412;9.742;2023-01-15T02:08:26;0.82;;;0.30;;
36671;SDS011;22663;47.412;9.742;2023-01-15T02:10:52;1.23;;;0.20;;
36671;SDS011;22663;47.412;9.742;2023-01-15T02:15:49;0.82;;;0.40;;
36671;SDS011;22663;47.412;9.742;2023-01-15T02:18:19;0.80;;;0.40;;
36671;SDS011;22663;47.412;9.742;2023-01-15T02:20:49;1.25;;;0.30;;
36671;SDS011;22663;47.412;9.742;2023-01-15T02:26:17;0.93;;;0.30;;
36671;SDS011;22663;47.412;9.742;2023-01-15T02:28:45;0.38;;;0.20;;
36671;SDS011;22663;47.412;9.742;2023-01-15T02:31:16;1.05;;;0.30;;
36671;SDS011;22663;47.412;9.742;2023-01-15T02:33:58;0.85;;;0.30;;
36671;SDS011;22663;47.412;9.742;2023-01-15T02:36:27;0.22;;;0.10;;
36671;SDS011;22663;47.412;9.742;2023-01-15T02:38:54;0.55;;;0.13;;
36671;SDS011;22663;47.412;9.742;2023-01-15T02:41:24;0.10;;;0.10;;
36671;SDS011;22663;47.412;9.742;2023-01-15T02:43:52;1.15;;;0.30;;
36671;SDS011;22663;47.412;9.742;2023-01-15T02:46:20;1.80;;;0.40;;
36671;SDS011;22663;47.412;9.742;2023-01-15T02:48:49;0.63;;;0.20;;
36671;SDS011;22663;47.412;9.742;2023-01-15T02:51:18;0.70;;;0.30;;
36671;SDS011;22663;47.412;9.742;2023-01-15T02:53:45;0.40;;;0.20;;
36671;SDS011;22663;47.412;9.742;2023-01-15T02:56:18;0.40;;;0.20;;
36671;SDS011;22663;47.412;9.742;2023-01-15T02:58:45;0.82;;;0.25;;
36671;SDS011;22663;47.412;9.742;2023-01-15T03:01:14;1.10;;;0.25;;
36671;SDS011;22663;47.412;9.742;2023-01-15T03:06:10;0.35;;;0.30;;
36671;SDS011;22663;47.412;9.742;2023-01-15T03:08:38;0.38;;;0.20;;
36671;SDS011;22663;47.412;9.742;2023-01-15T03:11:14;0.77;;;0.25;;
36671;SDS011;22663;47.412;9.742;2023-01-15T03:14:02;1.30;;;0.38;;
36671;SDS011;22663;47.412;9.742;2023-01-15T03:16:38;1.58;;;0.52;;
36671;SDS011;22663;47.412;9.742;2023-01-15T03:21:50;0.47;;;0.20;;
36671;SDS011;22663;47.412;9.742;2023-01-15T03:24:26;0.60;;;0.30;;
36671;SDS011;22663;47.412;9.742;2023-01-15T03:26:53;0.80;;;0.38;;
36671;SDS011;22663;47.412;9.742;2023-01-15T03:29:19;0.82;;;0.30;;
36671;SDS011;22663;47.412;9.742;2023-01-15T03:31:46;0.90;;;0.30;;
36671;SDS011;22663;47.412;9.742;2023-01-15T03:34:13;3.50;;;0.35;;
36671;SDS011;22663;47.412;9.742;2023-01-15T03:36:39;0.70;;;0.30;;
36671;SDS011;22663;47.412;9.742;2023-01-15T03:39:05;1.05;;;0.20;;
36671;SDS011;22663;47.412;9.742;2023-01-15T03:46:38;0.80;;;0.20;;
36671;SDS011;22663;47.412;9.742;2023-01-15T03:49:10;0.98;;;0.52;;
36671;SDS011;22663;47.412;9.742;2023-01-15T03:51:45;0.90;;;0.47;;
36671;SDS011;22663;47.412;9.742;2023-01-15T03:54:15;0.55;;;0.32;;
36671;SDS011;22663;47.412;9.742;2023-01-15T03:57:05;1.33;;;0.40;;
36671;SDS011;22663;47.412;9.742;2023-01-15T03:59:30;1.42;;;0.30;;
36671;SDS011;22663;47.412;9.742;2023-01-15T04:01:57;0.80;;;0.40;;
36671;SDS011;22663;47.412;9.742;2023-01-15T04:04:24;1.00;;;0.32;;
36671;SDS011;22663;47.412;9.742;2023-01-15T04:06:51;0.70;;;0.20;;
36671;SDS011;22663;47.412;9.742;2023-01-15T04:09:18;0.95;;;0.30;;
36671;SDS011;22663;47.412;9.742;2023-01-15T04:11:44;0.60;;;0.22;;
36671;SDS011;22663;47.412;9.742;2023-01-15T04:14:11;1.33;;;0.30;;
36671;SDS011;22663;47.412;9.742;2023-01-15T04:16:38;1.83;;;0.43;;
36671;SDS011;22663;47.412;9.742;2023-01-15T04:19:04;0.40;;;0.30;;
36671;SDS011;22663;47.412;9.742;2023-01-15T04:21:30;1.02;;;0.32;;
36671;SDS011;22663;47.412;9.742;2023-01-15T04:23:56;0.30;;;0.20;;
36671;SDS011;22663;47.412;9.742;2023-01-15T04:26:22;0.38;;;0.32;;
36671;SDS011;22663;47.412;9.742;2023-01-15T04:28:49;1.05;;;0.40;;
36671;SDS011;22663;47.412;9.742;2023-01-15T04:31:15;1.50;;;0.35;;
36671;SDS011;22663;47.412;9.742;2023-01-15T04:33:41;0.30;;;0.20;;
36671;SDS011;22663;47.412;9.742;2023-01-15T04:36:07;1.27;;;0.40;;
36671;SDS011;22663;47.412;9.742;2023-01-15T04:38:33;1.75;;;0.32;;
36671;SDS011;22663;47.412;9.742;2023-01-15T04:41:00;0.50;;;0.20;;
36671;SDS011;22663;47.412;9.742;2023-01-15T04:43:45;1.60;;;0.40;;
36671;SDS011;22663;47.412;9.742;2023-01-15T04:46:30;0.63;;;0.30;;
36671;SDS011;22663;47.412;9.742;2023-01-15T04:48:56;0.30;;;0.20;;
36671;SDS011;22663;47.412;9.742;2023-01-15T04:51:22;1.67;;;0.57;;
36671;SDS011;22663;47.412;9.742;2023-01-15T04:53:48;1.73;;;0.30;;
36671;SDS011;22663;47.412;9.742;2023-01-15T04:56:14;1.55;;;0.22;;
36671;SDS011;22663;47.412;9.742;2023-01-15T04:58:40;0.40;;;0.17;;
36671;SDS011;22663;47.412;9.742;2023-01-15T05:01:13;0.20;;;0.20;;
36671;SDS011;22663;47.412;9.742;2023-01-15T05:03:39;0.70;;;0.30;;
36671;SDS011;22663;47.412;9.742;2023-01-15T05:06:05;0.38;;;0.28;;
36671;SDS011;22663;47.412;9.742;2023-01-15T05:08:32;0.68;;;0.25;;
36671;SDS011;22663;47.412;9.742;2023-01-15T05:11:01;1.38;;;0.30;;
36671;SDS011;22663;47.412;9.742;2023-01-15T05:13:28;0.77;;;0.40;;
36671;SDS011;22663;47.412;9.742;2023-01-15T05:15:56;1.45;;;0.20;;
36671;SDS011;22663;47.412;9.742;2023-01-15T05:18:22;1.70;;;0.30;;
36671;SDS011;22663;47.412;9.742;2023-01-15T05:20:48;0.50;;;0.30;;
36671;SDS011;22663;47.412;9.742;2023-01-15T05:23:15;0.35;;;0.15;;
36671;SDS011;22663;47.412;9.742;2023-01-15T05:25:41;0.30;;;0.20;;
36671;SDS011;22663;47.412;9.742;2023-01-15T05:28:07;0.60;;;0.40;;
36671;SDS011;22663;47.412;9.742;2023-01-15T05:30:33;1.08;;;0.35;;
36671;SDS011;22663;47.412;9.742;2023-01-15T05:33:00;0.98;;;0.50;;
36671;SDS011;22663;47.412;9.742;2023-01-15T05:35:26;1.27;;;0.40;;
36671;SDS011;22663;47.412;9.742;2023-01-15T05:37:52;1.13;;;0.50;;
36671;SDS011;22663;47.412;9.742;2023-01-15T05:40:18;0.65;;;0.40;;
36671;SDS011;22663;47.412;9.742;2023-01-15T05:42:44;0.95;;;0.55;;
36671;SDS011;22663;47.412;9.742;2023-01-15T05:45:10;0.73;;;0.50;;
36671;SDS011;22663;47.412;9.742;2023-01-15T05:47:36;1.08;;;0.38;;
36671;SDS011;22663;47.412;9.742;2023-01-15T05:50:02;1.75;;;0.52;;
36671;SDS011;22663;47.412;9.742;2023-01-15T05:52:28;2.22;;;0.40;;
36671;SDS011;22663;47.412;9.742;2023-01-15T05:54:54;0.57;;;0.20;;
36671;SDS011;22663;47.412;9.742;2023-01-15T05:57:20;0.60;;;0.40;;
36671;SDS011;22663;47.412;9.742;2023-01-15T05:59:46;2.22;;;1.00;;
36671;SDS011;22663;47.412;9.742;2023-01-15T06:02:14;0.65;;;0.50;;
36671;SDS011;22663;47.412;9.742;2023-01-15T06:04:40;0.32;;;0.25;;
36671;SDS011;22663;47.412;9.742;2023-01-15T06:07:06;0.68;;;0.30;;
36671;SDS011;22663;47.412;9.742;2023-01-15T06:09:32;0.98;;;0.20;;
36671;SDS011;22663;47.412;9.742;2023-01-15T06:11:58;0.55;;;0.10;;
36671;SDS011;22663;47.412;9.742;2023-01-15T06:14:24;0.30;;;0.20;;
36671;SDS011;22663;47.412;9.742;2023-01-15T06:16:50;0.50;;;0.15;;
36671;SDS011;22663;47.412;9.742;2023-01-15T06:19:17;0.40;;;0.20;;
36671;SDS011;22663;47.412;9.742;2023-01-15T06:21:43;0.50;;;0.20;;
36671;SDS011;22663;47.412;9.742;2023-01-15T06:24:10;1.25;;;0.17;;
36671;SDS011;22663;47.412;9.742;2023-01-15T06:26:36;0.28;;;0.10;;
36671;SDS011;22663;47.412;9.742;2023-01-15T06:29:03;0.30;;;0.20;;
36671;SDS011;22663;47.412;9.742;2023-01-15T06:31:29;2.75;;;0.60;;
36671;SDS011;22663;47.412;9.742;2023-01-15T06:33:56;2.45;;;0.82;;
36671;SDS011;22663;47.412;9.742;2023-01-15T06:36:23;1.42;;;0.80;;
36671;SDS011;22663;47.412;9.742;2023-01-15T06:38:50;1.05;;;0.35;;
36671;SDS011;22663;47.412;9.742;2023-01-15T06:41:17;1.63;;;0.43;;
36671;SDS011;22663;47.412;9.742;2023-01-15T06:44:02;3.80;;;1.02;;
36671;SDS011;22663;47.412;9.742;2023-01-15T06:46:48;0.90;;;0.30;;
36671;SDS011;22663;47.412;9.742;2023-01-15T06:49:33;0.65;;;0.40;;
36671;SDS011;22663;47.412;9.742;2023-01-15T06:51:59;0.98;;;0.30;;
36671;SDS011;22663;47.412;9.742;2023-01-15T06:54:25;2.67;;;0.30;;
36671;SDS011;22663;47.412;9.742;2023-01-15T06:56:51;0.77;;;0.40;;
36671;SDS011;22663;47.412;9.742;2023-01-15T06:59:18;0.60;;;0.35;;
36671;SDS011;22663;47.412;9.742;2023-01-15T07:01:44;1.30;;;0.65;;
36671;SDS011;22663;47.412;9.742;2023-01-15T07:04:10;1.20;;;0.63;;
36671;SDS011;22663;47.412;9.742;2023-01-15T07:06:36;1.10;;;0.68;;
36671;SDS011;22663;47.412;9.742;2023-01-15T07:09:02;2.83;;;0.60;;
36671;SDS011;22663;47.412;9.742;2023-01-15T07:11:28;1.23;;;0.63;;
36671;SDS011;22663;47.412;9.742;2023-01-15T07:13:54;1.00;;;0.55;;
36671;SDS011;22663;47.412;9.742;2023-01-15T07:16:36;1.15;;;0.70;;
36671;SDS011;22663;47.412;9.742;2023-01-15T07:19:02;1.40;;;0.63;;
36671;SDS011;22663;47.412;9.742;2023-01-15T07:21:29;1.17;;;0.68;;
36671;SDS011;22663;47.412;9.742;2023-01-15T07:23:58;2.55;;;0.90;;
36671;SDS011;22663;47.412;9.742;2023-01-15T07:26:25;1.67;;;0.55;;
36671;SDS011;22663;47.412;9.742;2023-01-15T07:28:51;2.03;;;0.98;;
36671;SDS011;22663;47.412;9.742;2023-01-15T07:31:17;3.60;;;1.60;;
36671;SDS011;22663;47.412;9.742;2023-01-15T07:33:43;3.60;;;2.60;;
36671;SDS011;22663;47.412;9.742;2023-01-15T07:36:09;3.13;;;2.15;;
36671;SDS011;22663;47.412;9.742;2023-01-15T07:38:35;4.88;;;2.75;;
36671;SDS011;22663;47.412;9.742;2023-01-15T07:41:01;3.97;;;2.55;;
36671;SDS011;22663;47.412;9.742;2023-01-15T07:43:46;2.83;;;1.15;;
36671;SDS011;22663;47.412;9.742;2023-01-15T07:46:31;2.05;;;1.20;;
36671;SDS011;22663;47.412;9.742;2023-01-15T07:49:15;1.88;;;0.75;;
36671;SDS011;22663;47.412;9.742;2023-01-15T07:52:00;3.28;;;1.42;;
36671;SDS011;22663;47.412;9.742;2023-01-15T07:54:26;2.08;;;1.40;;
36671;SDS011;22663;47.412;9.742;2023-01-15T07:56:53;1.75;;;1.13;;
36671;SDS011;22663;47.412;9.742;2023-01-15T07:59:20;2.00;;;1.27;;
36671;SDS011;22663;47.412;9.742;2023-01-15T08:01:46;2.13;;;1.40;;
36671;SDS011;22663;47.412;9.742;2023-01-15T08:04:12;2.58;;;1.38;;
36671;SDS011;22663;47.412;9.742;2023-01-15T08:06:38;3.15;;;1.63;;
36671;SDS011;22663;47.412;9.742;2023-01-15T08:09:04;2.80;;;2.00;;
36671;SDS011;22663;47.412;9.742;2023-01-15T08:11:31;6.95;;;2.88;;
36671;SDS011;22663;47.412;9.742;2023-01-15T08:14:17;4.82;;;2.30;;
36671;SDS011;22663;47.412;9.742;2023-01-15T08:17:01;2.63;;;2.00;;
36671;SDS011;22663;47.412;9.742;2023-01-15T08:19:27;2.70;;;2.08;;
36671;SDS011;22663;47.412;9.742;2023-01-15T08:21:57;2.83;;;2.17;;
36671;SDS011;22663;47.412;9.742;2023-01-15T08:24:25;4.97;;;2.30;;
36671;SDS011;22663;47.412;9.742;2023-01-15T08:26:52;4.10;;;1.88;;
36671;SDS011;22663;47.412;9.742;2023-01-15T08:29:19;2.50;;;1.50;;
36671;SDS011;22663;47.412;9.742;2023-01-15T08:31:45;2.95;;;2.00;;
36671;SDS011;22663;47.412;9.742;2023-01-15T08:34:11;3.72;;;2.25;;
36671;SDS011;22663;47.412;9.742;2023-01-15T08:36:38;4.10;;;2.50;;
36671;SDS011;22663;47.412;9.742;2023-01-15T08:39:03;3.08;;;2.17;;
36671;SDS011;22663;47.412;9.742;2023-01-15T08:41:30;3.30;;;1.88;;
36671;SDS011;22663;47.412;9.742;2023-01-15T08:43:56;3.25;;;2.08;;
36671;SDS011;22663;47.412;9.742;2023-01-15T08:46:24;2.28;;;1.48;;
36671;SDS011;22663;47.412;9.742;2023-01-15T08:48:50;2.58;;;1.40;;
36671;SDS011;22663;47.412;9.742;2023-01-15T08:51:17;6.10;;;2.13;;
36671;SDS011;22663;47.412;9.742;2023-01-15T08:53:43;2.42;;;1.48;;
36671;SDS011;22663;47.412;9.742;2023-01-15T08:56:16;3.53;;;1.92;;
36671;SDS011;22663;47.412;9.742;2023-01-15T08:58:43;1.27;;;0.95;;
36671;SDS011;22663;47.412;9.742;2023-01-15T09:01:10;1.70;;;1.27;;
36671;SDS011;22663;47.412;9.742;2023-01-15T09:03:39;1.60;;;0.70;;
36671;SDS011;22663;47.412;9.742;2023-01-15T09:06:06;0.93;;;0.57;;
36671;SDS011;22663;47.412;9.742;2023-01-15T09:08:32;1.67;;;0.73;;
36671;SDS011;22663;47.412;9.742;2023-01-15T09:10:58;1.45;;;0.80;;
36671;SDS011;22663;47.412;9.742;2023-01-15T09:13:25;1.25;;;0.70;;
36671;SDS011;22663;47.412;9.742;2023-01-15T09:15:51;2.38;;;0.95;;
36671;SDS011;22663;47.412;9.742;2023-01-15T09:18:17;1.83;;;1.00;;
36671;SDS011;22663;47.412;9.742;2023-01-15T09:20:47;1.85;;;1.48;;
36671;SDS011;22663;47.412;9.742;2023-01-15T09:23:13;3.65;;;2.08;;
36671;SDS011;22663;47.412;9.742;2023-01-15T09:25:39;2.20;;;1.27;;
36671;SDS011;22663;47.412;9.742;2023-01-15T09:28:06;3.20;;;1.67;;
36671;SDS011;22663;47.412;9.742;2023-01-15T09:30:32;2.28;;;1.52;;
36671;SDS011;22663;47.412;9.742;2023-01-15T09:32:58;2.00;;;1.33;;
36671;SDS011;22663;47.412;9.742;2023-01-15T09:35:24;2.03;;;1.15;;
36671;SDS011;22663;47.412;9.742;2023-01-15T09:37:51;1.75;;;0.50;;
36671;SDS011;22663;47.412;9.742;2023-01-15T09:40:33;1.48;;;0.68;;
36671;SDS011;22663;47.412;9.742;2023-01-15T09:43:03;1.15;;;0.85;;
36671;SDS011;22663;47.412;9.742;2023-01-15T09:45:36;1.30;;;0.80;;
36671;SDS011;22663;47.412;9.742;2023-01-15T09:48:06;1.63;;;0.63;;
36671;SDS011;22663;47.412;9.742;2023-01-15T09:53:26;0.77;;;0.52;;
36671;SDS011;22663;47.412;9.742;2023-01-15T09:55:54;2.25;;;0.30;;
36671;SDS011;22663;47.412;9.742;2023-01-15T09:58:22;0.60;;;0.30;;
36671;SDS011;22663;47.412;9.742;2023-01-15T10:00:51;0.50;;;0.20;;
36671;SDS011;22663;47.412;9.742;2023-01-15T10:03:24;0.80;;;0.30;;
36671;SDS011;22663;47.412;9.742;2023-01-15T10:08:29;0.40;;;0.10;;
36671;SDS011;22663;47.412;9.742;2023-01-15T10:14:05;0.95;;;0.13;;
36671;SDS011;22663;47.412;9.742;2023-01-15T10:16:33;0.47;;;0.10;;
36671;SDS011;22663;47.412;9.742;2023-01-15T10:18:59;0.10;;;0.00;;
36671;SDS011;22663;47.412;9.742;2023-01-15T10:24:17;0.32;;;0.15;;
36671;SDS011;22663;47.412;9.742;2023-01-15T10:26:56;1.48;;;0.20;;
36671;SDS011;22663;47.412;9.742;2023-01-15T10:32:03;0.30;;;0.10;;
36671;SDS011;22663;47.412;9.742;2023-01-15T10:37:17;0.30;;;0.10;;
36671;SDS011;22663;47.412;9.742;2023-01-15T10:47:33;0.00;;;0.00;;
36671;SDS011;22663;47.412;9.742;2023-01-15T10:50:02;0.00;;;0.00;;
36671;SDS011;22663;47.412;9.742;2023-01-15T10:52:30;0.03;;;0.00;;
36671;SDS011;22663;47.412;9.742;2023-01-15T10:55:18;1.00;;;0.22;;
36671;SDS011;22663;47.412;9.742;2023-01-15T11:00:13;0.52;;;0.10;;
36671;SDS011;22663;47.412;9.742;2023-01-15T11:02:39;0.10;;;0.10;;
36671;SDS011;22663;47.412;9.742;2023-01-15T11:05:14;0.55;;;0.30;;
36671;SDS011;22663;47.412;9.742;2023-01-15T11:07:42;0.55;;;0.10;;
36671;SDS011;22663;47.412;9.742;2023-01-15T11:10:10;0.30;;;0.10;;
36671;SDS011;22663;47.412;9.742;2023-01-15T11:12:39;0.30;;;0.20;;
36671;SDS011;22663;47.412;9.742;2023-01-15T11:15:24;0.70;;;0.30;;
36671;SDS011;22663;47.412;9.742;2023-01-15T11:21:26;1.83;;;0.40;;
36671;SDS011;22663;47.412;9.742;2023-01-15T11:23:53;0.88;;;0.55;;
36671;SDS011;22663;47.412;9.742;2023-01-15T11:26:27;1.08;;;0.40;;
36671;SDS011;22663;47.412;9.742;2023-01-15T11:28:54;1.02;;;0.50;;
36671;SDS011;22663;47.412;9.742;2023-01-15T11:31:20;0.20;;;0.00;;
36671;SDS011;22663;47.412;9.742;2023-01-15T11:33:57;0.47;;;0.20;;
36671;SDS011;22663;47.412;9.742;2023-01-15T11:36:24;0.10;;;0.05;;
36671;SDS011;22663;47.412;9.742;2023-01-15T11:38:51;0.30;;;0.20;;
36671;SDS011;22663;47.412;9.742;2023-01-15T11:43:56;0.10;;;0.10;;
36671;SDS011;22663;47.412;9.742;2023-01-15T11:46:41;0.32;;;0.28;;
36671;SDS011;22663;47.412;9.742;2023-01-15T11:49:25;0.70;;;0.30;;
36671;SDS011;22663;47.412;9.742;2023-01-15T11:52:15;0.10;;;0.10;;
36671;SDS011;22663;47.412;9.742;2023-01-15T11:54:42;0.05;;;0.05;;
36671;SDS011;22663;47.412;9.742;2023-01-15T11:57:09;0.63;;;0.28;;
36671;SDS011;22663;47.412;9.742;2023-01-15T11:59:36;0.50;;;0.20;;
36671;SDS011;22663;47.412;9.742;2023-01-15T12:07:13;2.15;;;0.30;;
36671;SDS011;22663;47.412;9.742;2023-01-15T12:15:10;0.30;;;0.20;;
36671;SDS011;22663;47.412;9.742;2023-01-15T12:17:49;0.60;;;0.20;;
36671;SDS011;22663;47.412;9.742;2023-01-15T12:25:53;1.00;;;0.60;;
36671;SDS011;22663;47.412;9.742;2023-01-15T12:36:05;0.30;;;0.10;;
36671;SDS011;22663;47.412;9.742;2023-01-15T12:38:49;0.45;;;0.25;;
36671;SDS011;22663;47.412;9.742;2023-01-15T12:41:21;0.20;;;0.00;;
36671;SDS011;22663;47.412;9.742;2023-01-15T12:43:53;0.50;;;0.17;;
36671;SDS011;22663;47.412;9.742;2023-01-15T12:46:39;0.10;;;0.03;;
36671;SDS011;22663;47.412;9.742;2023-01-15T12:51:53;0.08;;;0.05;;
36671;SDS011;22663;47.412;9.742;2023-01-15T12:54:23;0.10;;;0.05;;
36671;SDS011;22663;47.412;9.742;2023-01-15T12:57:01;1.00;;;0.00;;
36671;SDS011;22663;47.412;9.742;2023-01-15T12:59:35;0.20;;;0.10;;
36671;SDS011;22663;47.412;9.742;2023-01-15T13:07:24;0.40;;;0.20;;
36671;SDS011;22663;47.412;9.742;2023-01-15T13:09:54;0.52;;;0.28;;
36671;SDS011;22663;47.412;9.742;2023-01-15T13:12:20;0.60;;;0.30;;
36671;SDS011;22663;47.412;9.742;2023-01-15T13:14:46;0.70;;;0.20;;
36671;SDS011;22663;47.412;9.742;2023-01-15T13:17:23;2.00;;;0.57;;
36671;SDS011;22663;47.412;9.742;2023-01-15T13:20:03;0.80;;;0.30;;
36671;SDS011;22663;47.412;9.742;2023-01-15T13:22:36;1.13;;;0.25;;
36671;SDS011;22663;47.412;9.742;2023-01-15T13:28:33;1.98;;;0.60;;
36671;SDS011;22663;47.412;9.742;2023-01-15T13:30:46;0.95;;;0.70;;
36671;SDS011;22663;47.412;9.742;2023-01-15T13:36:02;1.45;;;0.40;;
36671;SDS011;22663;47.412;9.742;2023-01-15T13:38:31;0.38;;;0.20;;
36671;SDS011;22663;47.412;9.742;2023-01-15T13:41:01;0.22;;;0.10;;
36671;SDS011;22663;47.412;9.742;2023-01-15T13:43:34;0.70;;;0.43;;
36671;SDS011;22663;47.412;9.742;2023-01-15T13:46:03;0.73;;;0.40;;
36671;SDS011;22663;47.412;9.742;2023-01-15T13:48:31;1.35;;;0.70;;
36671;SDS011;22663;47.412;9.742;2023-01-15T13:50:59;1.38;;;0.52;;
36671;SDS011;22663;47.412;9.742;2023-01-15T13:53:31;2.45;;;0.80;;
36671;SDS011;22663;47.412;9.742;2023-01-15T13:55:58;1.23;;;0.60;;
36671;SDS011;22663;47.412;9.742;2023-01-15T13:58:30;3.60;;;1.30;;
36671;SDS011;22663;47.412;9.742;2023-01-15T14:01:04;0.77;;;0.70;;
36671;SDS011;22663;47.412;9.742;2023-01-15T14:03:32;3.00;;;0.70;;
36671;SDS011;22663;47.412;9.742;2023-01-15T14:06:00;0.77;;;0.43;;
36671;SDS011;22663;47.412;9.742;2023-01-15T14:08:36;1.17;;;0.80;;
36671;SDS011;22663;47.412;9.742;2023-01-15T14:11:03;2.55;;;1.05;;
36671;SDS011;22663;47.412;9.742;2023-01-15T14:31:39;0.85;;;0.35;;
36671;SDS011;22663;47.412;9.742;2023-01-15T14:34:21;0.88;;;0.30;;
36671;SDS011;22663;47.412;9.742;2023-01-15T14:36:49;0.30;;;0.13;;
36671;SDS011;22663;47.412;9.742;2023-01-15T14:41:55;0.68;;;0.20;;
36671;SDS011;22663;47.412;9.742;2023-01-15T14:44:42;1.38;;;0.50;;
36671;SDS011;22663;47.412;9.742;2023-01-15T14:47:26;1.40;;;0.50;;
36671;SDS011;22663;47.412;9.742;2023-01-15T14:52:37;0.50;;;0.40;;
36671;SDS011;22663;47.412;9.742;2023-01-15T14:55:03;0.65;;;0.40;;
36671;SDS011;22663;47.412;9.742;2023-01-15T14:57:33;1.15;;;0.22;;
36671;SDS011;22663;47.412;9.742;2023-01-15T15:00:01;1.02;;;0.50;;
36671;SDS011;22663;47.412;9.742;2023-01-15T15:02:34;1.40;;;0.50;;
36671;SDS011;22663;47.412;9.742;2023-01-15T15:05:01;0.13;;;0.10;;
36671;SDS011;22663;47.412;9.742;2023-01-15T15:07:34;1.20;;;0.50;;
36671;SDS011;22663;47.412;9.742;2023-01-15T15:17:30;0.45;;;0.20;;
36671;SDS011;22663;47.412;9.742;2023-01-15T15:20:06;0.60;;;0.30;;
36671;SDS011;22663;47.412;9.742;2023-01-15T15:22:40;1.80;;;0.20;;
36671;SDS011;22663;47.412;9.742;2023-01-15T15:25:07;0.30;;;0.20;;
36671;SDS011;22663;47.412;9.742;2023-01-15T15:27:34;0.45;;;0.20;;
36671;SDS011;22663;47.412;9.742;2023-01-15T15:30:04;0.90;;;0.30;;
36671;SDS011;22663;47.412;9.742;2023-01-15T15:32:31;0.77;;;0.30;;
36671;SDS011;22663;47.412;9.742;2023-01-15T15:35:04;0.80;;;0.20;;
36671;SDS011;22663;47.412;9.742;2023-01-15T15:37:30;1.27;;;0.40;;
36671;SDS011;22663;47.412;9.742;2023-01-15T15:42:32;1.20;;;0.25;;
36671;SDS011;22663;47.412;9.742;2023-01-15T15:45:22;0.82;;;0.25;;
36671;SDS011;22663;47.412;9.742;2023-01-15T15:48:21;1.20;;;0.40;;
36671;SDS011;22663;47.412;9.742;2023-01-15T15:53:50;0.80;;;0.50;;
36671;SDS011;22663;47.412;9.742;2023-01-15T15:56:26;2.38;;;1.10;;
36671;SDS011;22663;47.412;9.742;2023-01-15T15:58:52;1.52;;;0.70;;
36671;SDS011;22663;47.412;9.742;2023-01-15T16:01:19;0.98;;;0.60;;
36671;SDS011;22663;47.412;9.742;2023-01-15T16:03:46;2.78;;;1.33;;
36671;SDS011;22663;47.412;9.742;2023-01-15T16:06:16;2.05;;;0.50;;
36671;SDS011;22663;47.412;9.742;2023-01-15T16:08:50;3.13;;;0.90;;
36671;SDS011;22663;47.412;9.742;2023-01-15T16:13:43;3.15;;;1.85;;
36671;SDS011;22663;47.412;9.742;2023-01-15T16:16:10;1.50;;;0.93;;
36671;SDS011;22663;47.412;9.742;2023-01-15T16:18:41;1.55;;;0.52;;
36671;SDS011;22663;47.412;9.742;2023-01-15T16:21:09;0.67;;;0.40;;
36671;SDS011;22663;47.412;9.742;2023-01-15T16:23:35;1.00;;;0.50;;
36671;SDS011;22663;47.412;9.742;2023-01-15T16:26:10;1.38;;;0.65;;
36671;SDS011;22663;47.412;9.742;2023-01-15T16:28:42;1.10;;;0.60;;
36671;SDS011;22663;47.412;9.742;2023-01-15T16:31:09;0.50;;;0.40;;
36671;SDS011;22663;47.412;9.742;2023-01-15T16:33:36;0.82;;;0.40;;
36671;SDS011;22663;47.412;9.742;2023-01-15T16:36:03;1.48;;;0.63;;
36671;SDS011;22663;47.412;9.742;2023-01-15T16:38:40;0.90;;;0.30;;
36671;SDS011;22663;47.412;9.742;2023-01-15T16:41:15;0.40;;;0.20;;
36671;SDS011;22663;47.412;9.742;2023-01-15T16:43:52;2.25;;;0.60;;
36671;SDS011;22663;47.412;9.742;2023-01-15T16:46:19;1.55;;;0.50;;
36671;SDS011;22663;47.412;9.742;2023-01-15T16:48:46;1.40;;;0.80;;
36671;SDS011;22663;47.412;9.742;2023-01-15T16:51:23;1.33;;;0.77;;
36671;SDS011;22663;47.412;9.742;2023-01-15T16:53:59;2.78;;;0.40;;
36671;SDS011;22663;47.412;9.742;2023-01-15T16:59:02;0.60;;;0.32;;
36671;SDS011;22663;47.412;9.742;2023-01-15T17:01:36;0.40;;;0.30;;
36671;SDS011;22663;47.412;9.742;2023-01-15T17:04:15;0.80;;;0.20;;
36671;SDS011;22663;47.412;9.742;2023-01-15T17:06:42;1.08;;;0.20;;
36671;SDS011;22663;47.412;9.742;2023-01-15T17:09:12;0.40;;;0.30;;